Time;durP1;ratioP1;P1;durP2;ratioP2;P2;SDS_P1;SDS_P2;PMS_P1;PMS_P2;Temp;Humidity;BMP_temperature;BMP_pressure;BME280_temperature;BME280_humidity;BME280_pressure;Samples;Min_cycle;Max_cycle;Signal;HPM_P1;HPM_P2
2022/06/22 00:01:16;;;;;;;11.75;4.95;;;;;;;;;;4996763;28;20286;-65
2022/06/22 00:03:41;;;;;;;13.70;6.20;;;;;;;;;;5011290;28;20220;-65
2022/06/22 00:06:06;;;;;;;13.93;6.85;;;;;;;;;;4991076;28;20221;-64
2022/06/22 00:08:34;;;;;;;12.57;5.82;;;;;;;;;;5008098;28;20256;-64
2022/06/22 00:11:05;;;;;;;11.57;5.50;;;;;;;;;;5022425;28;20292;-65
2022/06/22 00:13:30;;;;;;;9.40;5.57;;;;;;;;;;5025897;28;20216;-64
2022/06/22 00:16:01;;;;;;;11.18;5.30;;;;;;;;;;5026896;28;20267;-65
2022/06/22 00:18:28;;;;;;;11.65;5.60;;;;;;;;;;5000319;28;20673;-65
2022/06/22 00:20:54;;;;;;;10.57;6.20;;;;;;;;;;5000415;28;20506;-65
2022/06/22 00:23:27;;;;;;;14.10;5.70;;;;;;;;;;5012687;28;20219;-65
2022/06/22 00:25:58;;;;;;;9.63;5.30;;;;;;;;;;4992723;28;20229;-65
2022/06/22 00:28:24;;;;;;;9.85;5.78;;;;;;;;;;4984436;28;20552;-64
2022/06/22 00:30:50;;;;;;;12.73;6.05;;;;;;;;;;4982975;28;20639;-65
2022/06/22 00:33:22;;;;;;;12.30;5.82;;;;;;;;;;5008028;28;20216;-64
2022/06/22 00:35:51;;;;;;;14.63;6.35;;;;;;;;;;4996058;28;20208;-64
2022/06/22 00:38:18;;;;;;;13.95;6.40;;;;;;;;;;5009367;28;20213;-64
2022/06/22 00:40:43;;;;;;;11.07;6.60;;;;;;;;;;4976421;28;20233;-65
2022/06/22 00:43:12;;;;;;;13.48;6.88;;;;;;;;;;4992054;28;20679;-64
2022/06/22 00:45:37;;;;;;;13.27;7.47;;;;;;;;;;4994440;28;20205;-66
2022/06/22 00:48:11;;;;;;;15.40;7.13;;;;;;;;;;4997289;28;20596;-65
2022/06/22 00:50:37;;;;;;;13.85;6.78;;;;;;;;;;4998017;28;20209;-66
2022/06/22 00:53:03;;;;;;;13.43;6.97;;;;;;;;;;4982711;28;20300;-66
2022/06/22 00:55:31;;;;;;;12.13;7.25;;;;;;;;;;4996642;28;20263;-66
2022/06/22 00:57:59;;;;;;;16.42;7.20;;;;;;;;;;4997366;28;20217;-66
2022/06/22 01:00:24;;;;;;;9.55;6.65;;;;;;;;;;4997540;28;20221;-66
2022/06/22 01:02:55;;;;;;;10.05;7.05;;;;;;;;;;4989356;28;20229;-66
2022/06/22 01:05:21;;;;;;;11.20;7.40;;;;;;;;;;5006742;28;20228;-66
2022/06/22 01:07:50;;;;;;;12.55;6.93;;;;;;;;;;4993533;28;20200;-66
2022/06/22 01:10:26;;;;;;;12.55;7.10;;;;;;;;;;4996504;28;20209;-66
2022/06/22 01:12:53;;;;;;;14.43;7.38;;;;;;;;;;5016261;28;20746;-66
2022/06/22 01:15:22;;;;;;;12.88;7.95;;;;;;;;;;5001332;28;20224;-66
2022/06/22 01:17:52;;;;;;;14.30;7.80;;;;;;;;;;4981512;28;20220;-66
2022/06/22 01:20:29;;;;;;;12.18;7.00;;;;;;;;;;4997670;28;20237;-66
2022/06/22 01:23:08;;;;;;;15.13;7.95;;;;;;;;;;4995194;28;20260;-66
2022/06/22 01:25:33;;;;;;;13.93;7.78;;;;;;;;;;5001046;28;20555;-66
2022/06/22 01:28:00;;;;;;;16.95;8.30;;;;;;;;;;4978360;28;20683;-66
2022/06/22 01:30:33;;;;;;;14.65;8.35;;;;;;;;;;4993942;28;20257;-66
2022/06/22 01:33:00;;;;;;;14.30;7.78;;;;;;;;;;5008246;28;20760;-66
2022/06/22 01:35:26;;;;;;;14.48;8.77;;;;;;;;;;4985313;28;20213;-66
2022/06/22 01:37:52;;;;;;;16.17;10.25;;;;;;;;;;5000102;28;20217;-66
2022/06/22 01:40:18;;;;;;;16.13;9.25;;;;;;;;;;4984960;28;20244;-66
2022/06/22 01:43:00;;;;;;;17.50;9.70;;;;;;;;;;5004822;28;20209;-66
2022/06/22 01:45:28;;;;;;;14.07;8.18;;;;;;;;;;4996060;28;20238;-65
2022/06/22 01:47:55;;;;;;;16.33;10.05;;;;;;;;;;4992678;28;20552;-66
2022/06/22 01:50:33;;;;;;;14.20;8.95;;;;;;;;;;5011629;28;20573;-66
2022/06/22 01:52:58;;;;;;;15.18;10.23;;;;;;;;;;4997639;28;20208;-66
2022/06/22 01:55:32;;;;;;;15.27;9.20;;;;;;;;;;5004164;28;20227;-66
2022/06/22 01:58:31;;;;;;;14.05;9.95;;;;;;;;;;5004029;28;20240;-66
2022/06/22 02:00:57;;;;;;;13.93;9.63;;;;;;;;;;5003747;28;20315;-66
2022/06/22 02:03:25;;;;;;;12.77;8.55;;;;;;;;;;5004131;28;20698;-65
2022/06/22 02:05:53;;;;;;;14.57;9.75;;;;;;;;;;5019164;28;20220;-66
2022/06/22 02:08:20;;;;;;;14.75;9.93;;;;;;;;;;5003249;28;20721;-65
2022/06/22 02:10:47;;;;;;;15.55;9.25;;;;;;;;;;4995255;28;20756;-65
2022/06/22 02:13:31;;;;;;;16.20;9.88;;;;;;;;;;5010599;28;20795;-66
2022/06/22 02:16:09;;;;;;;17.73;9.98;;;;;;;;;;5012535;28;20228;-65
2022/06/22 02:18:43;;;;;;;19.10;10.38;;;;;;;;;;5004364;28;20539;-66
2022/06/22 02:21:18;;;;;;;16.33;9.57;;;;;;;;;;5002761;28;20224;-65
2022/06/22 02:23:43;;;;;;;17.80;10.13;;;;;;;;;;5004204;28;20216;-65
2022/06/22 02:26:11;;;;;;;16.48;10.57;;;;;;;;;;5002598;28;20244;-65
2022/06/22 02:28:37;;;;;;;15.25;10.57;;;;;;;;;;5004233;28;20324;-65
2022/06/22 02:31:02;;;;;;;16.67;11.18;;;;;;;;;;4994696;28;20264;-65
2022/06/22 02:33:28;;;;;;;17.35;11.82;;;;;;;;;;4981025;28;20201;-65
2022/06/22 02:35:53;;;;;;;18.52;11.65;;;;;;;;;;4991822;28;20221;-65
2022/06/22 02:38:18;;;;;;;18.05;12.32;;;;;;;;;;4976744;28;20224;-66
2022/06/22 02:46:24;;;;;;;18.00;12.60;;;;;;;;;;5002761;28;20200;-65
2022/06/22 02:48:51;;;;;;;18.63;12.57;;;;;;;;;;5017831;28;20216;-65
2022/06/22 02:51:20;;;;;;;17.63;11.70;;;;;;;;;;5017941;28;20225;-64
2022/06/22 02:53:46;;;;;;;20.10;12.65;;;;;;;;;;5017171;28;20626;-65
2022/06/22 02:56:17;;;;;;;21.60;13.98;;;;;;;;;;4986783;28;20283;-65
2022/06/22 02:58:45;;;;;;;21.70;12.15;;;;;;;;;;5010975;28;20223;-65
2022/06/22 03:01:15;;;;;;;19.33;13.27;;;;;;;;;;4985664;28;20233;-65
2022/06/22 03:03:42;;;;;;;17.02;12.10;;;;;;;;;;5018376;28;20255;-65
2022/06/22 03:06:09;;;;;;;22.10;14.02;;;;;;;;;;5018107;28;20266;-64
2022/06/22 03:08:34;;;;;;;20.15;13.40;;;;;;;;;;5018068;28;20741;-65
2022/06/22 03:11:00;;;;;;;19.05;13.77;;;;;;;;;;4985778;28;20303;-65
2022/06/22 03:13:31;;;;;;;17.02;13.68;;;;;;;;;;4998292;28;20239;-65
2022/06/22 03:15:56;;;;;;;16.42;12.70;;;;;;;;;;5001738;28;20217;-65
2022/06/22 03:18:26;;;;;;;20.17;13.77;;;;;;;;;;4995690;28;20227;-65
2022/06/22 03:20:52;;;;;;;27.02;13.95;;;;;;;;;;4995631;28;20217;-64
2022/06/22 03:23:21;;;;;;;17.25;13.27;;;;;;;;;;5009434;28;20271;-62
2022/06/22 03:25:49;;;;;;;18.35;12.57;;;;;;;;;;5017040;28;20208;-64
2022/06/22 03:28:16;;;;;;;16.33;12.85;;;;;;;;;;5017148;28;21112;-64
2022/06/22 03:30:51;;;;;;;18.50;12.98;;;;;;;;;;4996566;28;20740;-65
2022/06/22 03:33:19;;;;;;;21.85;14.32;;;;;;;;;;5003452;28;20221;-64
2022/06/22 03:35:45;;;;;;;15.40;12.60;;;;;;;;;;5017987;28;20212;-64
2022/06/22 03:38:16;;;;;;;15.93;11.70;;;;;;;;;;5016526;28;20610;-64
2022/06/22 03:40:57;;;;;;;17.67;12.60;;;;;;;;;;4995809;28;20692;-65
2022/06/22 03:43:26;;;;;;;21.05;14.13;;;;;;;;;;5006146;28;20283;-65
2022/06/22 03:45:53;;;;;;;20.58;12.65;;;;;;;;;;5009733;28;20235;-65
2022/06/22 03:48:22;;;;;;;22.20;13.25;;;;;;;;;;5016357;28;20241;-64
2022/06/22 03:50:52;;;;;;;16.23;11.43;;;;;;;;;;5001317;28;20313;-64
2022/06/22 03:53:20;;;;;;;17.05;11.52;;;;;;;;;;5001879;28;20243;-64
2022/06/22 03:55:47;;;;;;;16.95;11.18;;;;;;;;;;5001702;28;20307;-64
2022/06/22 03:58:12;;;;;;;12.40;9.60;;;;;;;;;;5016343;28;20221;-65
2022/06/22 04:00:38;;;;;;;16.38;9.27;;;;;;;;;;5017218;28;20212;-64
2022/06/22 04:03:05;;;;;;;16.20;9.02;;;;;;;;;;4996167;28;20225;-64
2022/06/22 04:05:32;;;;;;;13.68;8.93;;;;;;;;;;5008708;28;20464;-64
2022/06/22 04:07:57;;;;;;;12.32;8.90;;;;;;;;;;5009337;28;20262;-64
2022/06/22 04:10:22;;;;;;;16.92;9.50;;;;;;;;;;4987056;28;20651;-64
2022/06/22 04:12:48;;;;;;;14.80;9.00;;;;;;;;;;4982483;28;20213;-64
2022/06/22 04:15:13;;;;;;;12.10;8.85;;;;;;;;;;4997509;28;20324;-63
2022/06/22 04:17:40;;;;;;;13.02;8.40;;;;;;;;;;4982886;28;20248;-64
2022/06/22 04:20:07;;;;;;;15.23;8.65;;;;;;;;;;5015035;28;20216;-64
2022/06/22 04:22:33;;;;;;;12.07;8.55;;;;;;;;;;5019683;28;20749;-64
2022/06/22 04:24:58;;;;;;;10.57;7.90;;;;;;;;;;5008703;28;20216;-64
2022/06/22 04:27:25;;;;;;;16.02;9.05;;;;;;;;;;5010135;28;20937;-63
2022/06/22 04:29:53;;;;;;;15.00;8.13;;;;;;;;;;5011891;28;20220;-67
2022/06/22 04:32:21;;;;;;;14.57;8.90;;;;;;;;;;5004565;28;20451;-64
2022/06/22 04:34:54;;;;;;;12.63;7.97;;;;;;;;;;5004600;28;20208;-65
2022/06/22 04:37:24;;;;;;;13.35;8.77;;;;;;;;;;5008843;28;20208;-65
2022/06/22 04:39:50;;;;;;;14.00;9.15;;;;;;;;;;5002626;28;20213;-64
2022/06/22 04:42:15;;;;;;;14.73;9.18;;;;;;;;;;5000020;28;20214;-64
2022/06/22 04:44:42;;;;;;;12.02;8.85;;;;;;;;;;5001795;28;20323;-63
2022/06/22 04:47:12;;;;;;;12.45;8.63;;;;;;;;;;5000844;28;20722;-62
2022/06/22 04:49:41;;;;;;;16.42;8.45;;;;;;;;;;5004328;28;20707;-63
2022/06/22 04:52:11;;;;;;;11.75;7.47;;;;;;;;;;5010915;28;20684;-62
2022/06/22 04:54:38;;;;;;;13.25;7.10;;;;;;;;;;5010873;28;20208;-66
2022/06/22 04:57:10;;;;;;;10.93;7.25;;;;;;;;;;5011091;28;20699;-67
2022/06/22 04:59:36;;;;;;;14.13;8.07;;;;;;;;;;5011338;28;20212;-65
2022/06/22 05:02:02;;;;;;;11.27;7.43;;;;;;;;;;5014080;28;20236;-63
2022/06/22 05:04:30;;;;;;;14.75;6.90;;;;;;;;;;5013032;28;20590;-66
2022/06/22 05:07:00;;;;;;;10.50;7.15;;;;;;;;;;5014796;28;20220;-65
2022/06/22 05:09:26;;;;;;;10.05;6.75;;;;;;;;;;5011435;28;20645;-69
2022/06/22 05:11:52;;;;;;;11.25;7.05;;;;;;;;;;5013741;28;20208;-68
2022/06/22 05:14:22;;;;;;;11.95;7.75;;;;;;;;;;5014381;28;20227;-68
2022/06/22 05:16:51;;;;;;;12.27;8.00;;;;;;;;;;5004553;28;20208;-68
2022/06/22 05:19:16;;;;;;;13.65;7.30;;;;;;;;;;4999900;28;20216;-71
2022/06/22 05:21:44;;;;;;;12.20;7.95;;;;;;;;;;5014648;28;20225;-68
2022/06/22 05:24:10;;;;;;;10.40;7.90;;;;;;;;;;5019895;28;20216;-64
2022/06/22 05:26:36;;;;;;;12.30;7.80;;;;;;;;;;5010159;28;20701;-65
2022/06/22 05:29:02;;;;;;;12.30;7.80;;;;;;;;;;5026918;28;20207;-64
2022/06/22 05:31:28;;;;;;;12.20;7.90;;;;;;;;;;5011669;28;20283;-65
2022/06/22 05:33:55;;;;;;;10.95;6.75;;;;;;;;;;4993877;28;20216;-65
2022/06/22 05:36:21;;;;;;;12.68;7.30;;;;;;;;;;5029891;28;20219;-64
2022/06/22 05:38:46;;;;;;;12.30;6.60;;;;;;;;;;5034638;28;20215;-64
2022/06/22 05:41:13;;;;;;;12.80;6.65;;;;;;;;;;5033975;28;20226;-64
2022/06/22 05:43:38;;;;;;;9.68;6.57;;;;;;;;;;5026814;28;20213;-64
2022/06/22 05:46:06;;;;;;;9.15;6.28;;;;;;;;;;5014113;28;20205;-64
2022/06/22 05:48:32;;;;;;;10.43;6.55;;;;;;;;;;5013337;28;20212;-64
2022/06/22 05:50:59;;;;;;;10.02;6.60;;;;;;;;;;5012444;28;20211;-65
2022/06/22 05:53:33;;;;;;;10.05;6.15;;;;;;;;;;5012835;28;20270;-64
2022/06/22 05:56:05;;;;;;;9.90;6.50;;;;;;;;;;5014548;28;20647;-65
2022/06/22 05:58:40;;;;;;;10.57;6.55;;;;;;;;;;5011946;28;20209;-67
2022/06/22 06:01:06;;;;;;;11.98;6.72;;;;;;;;;;5012414;28;20250;-68
2022/06/22 06:03:34;;;;;;;10.25;6.18;;;;;;;;;;5014335;28;20691;-67
2022/06/22 06:06:01;;;;;;;9.48;5.72;;;;;;;;;;5013559;28;20228;-66
2022/06/22 06:08:30;;;;;;;10.68;6.07;;;;;;;;;;5012687;28;20213;-66
2022/06/22 06:10:55;;;;;;;10.15;5.78;;;;;;;;;;5013633;28;20735;-66
2022/06/22 06:13:23;;;;;;;9.57;5.53;;;;;;;;;;5012872;28;20304;-66
2022/06/22 06:15:50;;;;;;;8.60;5.38;;;;;;;;;;5012809;28;20208;-67
2022/06/22 06:18:16;;;;;;;13.38;6.30;;;;;;;;;;5012987;28;20259;-67
2022/06/22 06:20:43;;;;;;;9.77;6.20;;;;;;;;;;5014076;28;20255;-66
2022/06/22 06:23:22;;;;;;;8.77;6.18;;;;;;;;;;5012287;28;20219;-66
2022/06/22 06:28:35;;;;;;;10.82;6.07;;;;;;;;;;5013561;28;20251;-67
2022/06/22 06:31:05;;;;;;;8.60;5.50;;;;;;;;;;5012617;28;20331;-67
2022/06/22 06:33:32;;;;;;;10.60;6.05;;;;;;;;;;4999472;28;20209;-66
2022/06/22 06:36:11;;;;;;;10.60;5.30;;;;;;;;;;5009669;28;20320;-66
2022/06/22 06:38:38;;;;;;;10.57;5.63;;;;;;;;;;4999068;28;20243;-66
2022/06/22 06:41:09;;;;;;;9.98;5.13;;;;;;;;;;4992640;28;20305;-66
2022/06/22 06:43:47;;;;;;;10.88;6.05;;;;;;;;;;4998622;28;20204;-67
2022/06/22 06:46:21;;;;;;;8.65;5.43;;;;;;;;;;5011740;28;20231;-66
2022/06/22 06:48:48;;;;;;;10.15;6.00;;;;;;;;;;5012042;28;20219;-67
2022/06/22 06:51:14;;;;;;;11.77;6.07;;;;;;;;;;5011310;28;20727;-65
2022/06/22 06:53:42;;;;;;;7.90;4.70;;;;;;;;;;5003249;28;20319;-67
2022/06/22 06:56:13;;;;;;;12.93;5.53;;;;;;;;;;5002165;28;20213;-64
2022/06/22 06:58:40;;;;;;;11.05;5.75;;;;;;;;;;5001939;28;20272;-66
2022/06/22 07:01:06;;;;;;;8.15;5.20;;;;;;;;;;5011920;28;20229;-65
2022/06/22 07:03:34;;;;;;;8.45;4.82;;;;;;;;;;5011404;28;20227;-65
2022/06/22 07:06:00;;;;;;;9.02;4.20;;;;;;;;;;5011351;28;20586;-65
2022/06/22 07:08:28;;;;;;;6.03;4.10;;;;;;;;;;5002199;28;20220;-65
2022/06/22 07:10:57;;;;;;;8.95;4.63;;;;;;;;;;5010473;28;20259;-72
2022/06/22 07:13:28;;;;;;;7.15;3.88;;;;;;;;;;5012580;28;20212;-66
2022/06/22 07:15:55;;;;;;;7.07;4.38;;;;;;;;;;5010628;28;20659;-67
2022/06/22 07:18:22;;;;;;;7.45;4.22;;;;;;;;;;5011022;28;25746;-68
2022/06/22 07:20:48;;;;;;;8.82;3.80;;;;;;;;;;5011210;28;20689;-66
2022/06/22 07:23:19;;;;;;;8.20;3.70;;;;;;;;;;5009918;28;20205;-66
2022/06/22 07:25:45;;;;;;;9.70;3.90;;;;;;;;;;5011631;28;20681;-68
2022/06/22 07:28:13;;;;;;;7.95;3.90;;;;;;;;;;5012053;28;20574;-68
2022/06/22 07:30:44;;;;;;;7.18;3.78;;;;;;;;;;5010482;28;20296;-66
2022/06/22 07:33:12;;;;;;;9.32;4.22;;;;;;;;;;5007251;28;20274;-68
2022/06/22 07:35:42;;;;;;;7.40;3.70;;;;;;;;;;5008498;28;20567;-63
2022/06/22 07:38:26;;;;;;;9.07;3.90;;;;;;;;;;5007665;28;20219;-64
2022/06/22 07:43:35;;;;;;;8.63;3.45;;;;;;;;;;5010282;28;20211;-64
2022/06/22 07:46:00;;;;;;;8.60;3.47;;;;;;;;;;5012589;28;20216;-64
2022/06/22 07:48:25;;;;;;;9.85;4.05;;;;;;;;;;5012236;28;20204;-64
2022/06/22 07:50:52;;;;;;;6.97;3.80;;;;;;;;;;5011690;28;20211;-64
2022/06/22 07:53:18;;;;;;;8.38;3.72;;;;;;;;;;5010340;28;20351;-64
2022/06/22 07:55:46;;;;;;;10.23;4.40;;;;;;;;;;5011317;28;20350;-65
2022/06/22 07:58:18;;;;;;;7.50;3.60;;;;;;;;;;5020197;28;20210;-65
2022/06/22 08:00:43;;;;;;;8.40;3.80;;;;;;;;;;5001637;28;20605;-64
2022/06/22 08:03:31;;;;;;;8.40;4.03;;;;;;;;;;5007691;28;20706;-64
2022/06/22 08:05:57;;;;;;;9.07;3.67;;;;;;;;;;5009913;28;20252;-64
2022/06/22 08:08:24;;;;;;;7.72;3.10;;;;;;;;;;5006825;28;20766;-64
2022/06/22 08:10:52;;;;;;;7.63;3.33;;;;;;;;;;5005497;28;20208;-63
2022/06/22 08:13:19;;;;;;;5.80;2.92;;;;;;;;;;5009953;28;20251;-63
2022/06/22 08:15:47;;;;;;;10.15;3.40;;;;;;;;;;5010950;28;20224;-64
2022/06/22 08:18:12;;;;;;;5.68;2.83;;;;;;;;;;5010547;28;20224;-64
2022/06/22 08:20:38;;;;;;;8.45;3.40;;;;;;;;;;5011470;28;20216;-64
2022/06/22 08:23:04;;;;;;;7.15;3.08;;;;;;;;;;5011196;28;20266;-63
2022/06/22 08:25:30;;;;;;;8.10;3.40;;;;;;;;;;5009730;28;20204;-64
2022/06/22 08:27:55;;;;;;;7.40;2.72;;;;;;;;;;5006842;28;20223;-64
2022/06/22 08:30:21;;;;;;;6.13;3.10;;;;;;;;;;5009927;28;20223;-64
2022/06/22 08:32:53;;;;;;;5.68;2.97;;;;;;;;;;5011078;28;20216;-64
2022/06/22 08:35:26;;;;;;;9.90;3.03;;;;;;;;;;5010870;28;20209;-64
2022/06/22 08:37:55;;;;;;;9.55;3.08;;;;;;;;;;5011448;28;20546;-64
2022/06/22 08:40:26;;;;;;;7.50;2.42;;;;;;;;;;5010634;28;20217;-64
2022/06/22 08:42:56;;;;;;;7.18;2.17;;;;;;;;;;5011513;28;20220;-64
2022/06/22 08:45:33;;;;;;;7.07;3.10;;;;;;;;;;4990754;28;20236;-64
2022/06/22 08:48:08;;;;;;;9.02;2.75;;;;;;;;;;4989863;28;20237;-64
2022/06/22 08:50:39;;;;;;;6.45;2.60;;;;;;;;;;4998479;28;20300;-64
2022/06/22 08:53:14;;;;;;;4.18;1.80;;;;;;;;;;4990862;28;20220;-64
2022/06/22 08:55:56;;;;;;;7.25;2.08;;;;;;;;;;4992162;28;20223;-64
2022/06/22 08:58:26;;;;;;;7.03;1.67;;;;;;;;;;4989493;28;20664;-64
2022/06/22 09:00:58;;;;;;;7.80;2.20;;;;;;;;;;4989525;28;20711;-64
2022/06/22 09:03:23;;;;;;;6.35;2.58;;;;;;;;;;4991476;28;20627;-64
2022/06/22 09:05:51;;;;;;;6.53;2.15;;;;;;;;;;4992198;28;20205;-64
2022/06/22 09:08:21;;;;;;;4.82;1.77;;;;;;;;;;4990683;28;20588;-64
2022/06/22 09:10:48;;;;;;;5.93;1.88;;;;;;;;;;4991385;28;20213;-64
2022/06/22 09:13:15;;;;;;;3.67;1.52;;;;;;;;;;4990077;28;20235;-66
2022/06/22 09:15:40;;;;;;;6.45;1.77;;;;;;;;;;4991008;28;20225;-64
2022/06/22 09:18:11;;;;;;;8.65;2.20;;;;;;;;;;4991543;28;20221;-64
2022/06/22 09:21:09;;;;;;;4.88;2.15;;;;;;;;;;4990691;28;20233;-65
2022/06/22 09:23:40;;;;;;;5.72;1.98;;;;;;;;;;5010526;28;20259;-64
2022/06/22 09:26:18;;;;;;;7.70;2.38;;;;;;;;;;5009252;28;20579;-64
2022/06/22 09:28:56;;;;;;;3.35;1.65;;;;;;;;;;5010643;28;20224;-64
2022/06/22 09:31:28;;;;;;;4.13;1.52;;;;;;;;;;4998331;28;20287;-64
2022/06/22 09:34:06;;;;;;;3.75;1.40;;;;;;;;;;5006738;28;20219;-64
2022/06/22 09:36:42;;;;;;;3.50;1.40;;;;;;;;;;5008953;28;20228;-63
2022/06/22 09:39:12;;;;;;;6.90;1.75;;;;;;;;;;5010803;28;20286;-64
2022/06/22 09:41:43;;;;;;;4.72;1.73;;;;;;;;;;4993086;28;20704;-64
2022/06/22 09:44:15;;;;;;;6.70;1.63;;;;;;;;;;4998887;28;20583;-64
2022/06/22 09:46:44;;;;;;;5.63;1.70;;;;;;;;;;4993003;28;20601;-64
2022/06/22 09:49:16;;;;;;;4.55;1.90;;;;;;;;;;4993956;28;20227;-64
2022/06/22 09:51:42;;;;;;;7.50;1.92;;;;;;;;;;4995233;28;20228;-64
2022/06/22 09:56:19;;;;;;;4.22;1.60;;;;;;;;;;4994390;28;20259;-64
2022/06/22 09:57:10;;;;;;;4.43;2.00;;;;;;;;;;4993591;28;20221;-64
2022/06/22 09:59:39;;;;;;;3.28;1.45;;;;;;;;;;5001072;28;20201;-64
2022/06/22 10:02:11;;;;;;;4.82;1.58;;;;;;;;;;4994116;28;20371;-63
2022/06/22 10:04:45;;;;;;;4.65;1.73;;;;;;;;;;4992850;28;20213;-64
2022/06/22 10:07:10;;;;;;;5.10;1.58;;;;;;;;;;4992783;28;20217;-64
2022/06/22 10:09:54;;;;;;;4.22;1.17;;;;;;;;;;4994454;28;20636;-64
2022/06/22 10:12:23;;;;;;;4.13;1.42;;;;;;;;;;4992973;28;20216;-64
2022/06/22 10:14:59;;;;;;;4.45;1.30;;;;;;;;;;4993282;28;20213;-64
2022/06/22 10:17:25;;;;;;;6.22;2.22;;;;;;;;;;4993196;28;20291;-64
2022/06/22 10:19:54;;;;;;;6.25;2.03;;;;;;;;;;4994236;28;20274;-64
2022/06/22 10:22:25;;;;;;;5.13;1.80;;;;;;;;;;4992680;28;20232;-64
2022/06/22 10:24:55;;;;;;;5.10;1.75;;;;;;;;;;4993615;28;20735;-64
2022/06/22 10:27:40;;;;;;;3.80;1.25;;;;;;;;;;4992481;28;20615;-64
2022/06/22 10:30:10;;;;;;;3.20;1.45;;;;;;;;;;4992771;28;20731;-64
2022/06/22 10:32:50;;;;;;;3.35;1.40;;;;;;;;;;5005029;28;20204;-63
2022/06/22 10:35:19;;;;;;;4.32;1.63;;;;;;;;;;5004054;28;20213;-63
2022/06/22 10:37:45;;;;;;;4.15;1.60;;;;;;;;;;5012876;28;20699;-64
2022/06/22 10:45:08;;;;;;;5.18;1.60;;;;;;;;;;5012465;28;20220;-63
2022/06/22 10:45:49;;;;;;;4.15;1.58;;;;;;;;;;5000268;28;20260;-64
2022/06/22 10:48:37;;;;;;;4.72;1.75;;;;;;;;;;4993810;28;20260;-63
2022/06/22 10:51:13;;;;;;;4.55;1.90;;;;;;;;;;4993297;28;20224;-63
2022/06/22 10:53:42;;;;;;;4.70;1.60;;;;;;;;;;4992753;28;20232;-75
2022/06/22 10:56:11;;;;;;;6.65;2.10;;;;;;;;;;4991877;28;20240;-76
2022/06/22 10:58:52;;;;;;;6.72;1.30;;;;;;;;;;4991680;28;20209;-73
2022/06/22 11:01:23;;;;;;;5.25;1.73;;;;;;;;;;4992111;28;20240;-73
2022/06/22 11:04:00;;;;;;;5.03;1.50;;;;;;;;;;4993357;28;20268;-72
2022/06/22 11:06:28;;;;;;;6.25;1.80;;;;;;;;;;5000173;28;20283;-72
2022/06/22 11:09:11;;;;;;;4.60;1.50;;;;;;;;;;4993183;28;20209;-73
2022/06/22 11:11:38;;;;;;;4.30;1.60;;;;;;;;;;4992649;28;20220;-73
2022/06/22 11:14:09;;;;;;;5.65;1.80;;;;;;;;;;4992401;28;20214;-73
2022/06/22 11:16:35;;;;;;;6.07;1.90;;;;;;;;;;4997092;28;20247;-76
2022/06/22 11:19:01;;;;;;;5.05;1.60;;;;;;;;;;5012638;28;20322;-71
2022/06/22 11:21:38;;;;;;;4.43;1.50;;;;;;;;;;5012342;28;20334;-73
2022/06/22 11:24:13;;;;;;;5.05;1.50;;;;;;;;;;4994507;28;20552;-72
2022/06/22 11:32:41;;;;;;;3.60;1.60;;;;;;;;;;4992564;28;20582;-72
2022/06/22 11:35:24;;;;;;;4.13;1.83;;;;;;;;;;5006811;28;20743;-71
2022/06/22 11:37:54;;;;;;;5.30;1.58;;;;;;;;;;5012793;28;20325;-75
2022/06/22 11:40:24;;;;;;;4.43;1.90;;;;;;;;;;5009371;28;20212;-75
2022/06/22 11:42:59;;;;;;;5.35;1.80;;;;;;;;;;4995791;28;20323;-75
2022/06/22 11:48:13;;;;;;;2.30;1.70;;;;;;;;;;4991107;28;20224;-75
2022/06/22 11:50:43;;;;;;;3.45;1.20;;;;;;;;;;4992195;28;20217;-75
2022/06/22 11:53:14;;;;;;;4.82;1.35;;;;;;;;;;4991218;28;20584;-76
2022/06/22 11:55:45;;;;;;;4.00;1.80;;;;;;;;;;4991057;28;20695;-74
2022/06/22 11:58:22;;;;;;;4.50;1.50;;;;;;;;;;4990585;28;20221;-77
2022/06/22 12:00:54;;;;;;;5.07;1.65;;;;;;;;;;4992451;28;20235;-75
2022/06/22 12:03:29;;;;;;;4.45;1.70;;;;;;;;;;4991147;28;20730;-75
2022/06/22 12:06:02;;;;;;;4.60;1.55;;;;;;;;;;4991169;28;20695;-73
2022/06/22 12:08:39;;;;;;;6.47;1.52;;;;;;;;;;4998326;28;20603;-75
2022/06/22 12:11:27;;;;;;;3.38;1.45;;;;;;;;;;4999376;28;20220;-73
2022/06/22 12:17:09;;;;;;;4.07;1.30;;;;;;;;;;5004781;28;20650;-75
2022/06/22 12:19:38;;;;;;;2.95;1.35;;;;;;;;;;4997816;28;20239;-74
2022/06/22 12:22:15;;;;;;;5.22;1.45;;;;;;;;;;4991964;28;20279;-74
2022/06/22 12:24:44;;;;;;;4.10;1.48;;;;;;;;;;4990108;28;20582;-74
2022/06/22 12:27:18;;;;;;;2.60;1.20;;;;;;;;;;4990183;28;20739;-74
2022/06/22 12:30:05;;;;;;;6.10;1.20;;;;;;;;;;4990819;28;20217;-77
2022/06/22 12:32:33;;;;;;;3.40;1.15;;;;;;;;;;4991119;28;20244;-74
2022/06/22 12:35:12;;;;;;;4.15;1.23;;;;;;;;;;5006437;28;20228;-74
2022/06/22 12:37:41;;;;;;;4.43;1.23;;;;;;;;;;4998246;28;20204;-76
2022/06/22 12:40:07;;;;;;;5.03;1.50;;;;;;;;;;4988950;28;20224;-73
2022/06/22 12:42:53;;;;;;;3.70;1.45;;;;;;;;;;4991839;28;20267;-75
2022/06/22 12:45:22;;;;;;;3.33;1.08;;;;;;;;;;5008340;28;20212;-76
2022/06/22 12:47:56;;;;;;;3.35;1.20;;;;;;;;;;5011370;28;20216;-74
2022/06/22 12:50:22;;;;;;;4.60;1.50;;;;;;;;;;5009670;28;20661;-75
2022/06/22 12:52:50;;;;;;;3.78;1.20;;;;;;;;;;5010636;28;20571;-74
2022/06/22 12:55:17;;;;;;;4.78;1.40;;;;;;;;;;5009723;28;20274;-73
2022/06/22 12:57:47;;;;;;;4.97;1.30;;;;;;;;;;5010532;28;20242;-73
2022/06/22 13:00:14;;;;;;;3.85;1.60;;;;;;;;;;5010169;28;20574;-80
2022/06/22 13:02:40;;;;;;;2.85;1.30;;;;;;;;;;5009696;28;20299;-76
2022/06/22 13:05:10;;;;;;;3.53;1.40;;;;;;;;;;5009576;28;20499;-72
2022/06/22 13:07:40;;;;;;;3.65;1.52;;;;;;;;;;5010768;28;20208;-73
2022/06/22 13:10:05;;;;;;;5.05;1.27;;;;;;;;;;5010699;28;20217;-74
2022/06/22 13:12:33;;;;;;;5.88;1.45;;;;;;;;;;5011689;28;20693;-74
2022/06/22 13:15:13;;;;;;;3.03;1.50;;;;;;;;;;5009262;28;20299;-73
2022/06/22 13:17:39;;;;;;;4.93;1.58;;;;;;;;;;5009100;28;20299;-72
2022/06/22 13:20:20;;;;;;;4.10;1.85;;;;;;;;;;5010787;28;20739;-71
2022/06/22 13:22:49;;;;;;;3.63;1.30;;;;;;;;;;5014985;28;20695;-71
2022/06/22 13:25:19;;;;;;;4.38;1.20;;;;;;;;;;5008656;28;20236;-71
2022/06/22 13:27:53;;;;;;;4.63;1.17;;;;;;;;;;5015496;28;20220;-73
2022/06/22 13:30:22;;;;;;;3.97;1.20;;;;;;;;;;4993134;28;20213;-72
2022/06/22 13:32:53;;;;;;;4.07;1.10;;;;;;;;;;5008735;28;20208;-71
2022/06/22 13:35:20;;;;;;;4.93;1.15;;;;;;;;;;5013829;28;20213;-72
2022/06/22 13:37:48;;;;;;;4.75;1.05;;;;;;;;;;5013691;28;20231;-72
2022/06/22 13:40:29;;;;;;;3.22;1.00;;;;;;;;;;5012613;28;20213;-70
2022/06/22 13:43:13;;;;;;;2.75;1.15;;;;;;;;;;5012824;28;20254;-73
2022/06/22 13:45:41;;;;;;;3.30;1.10;;;;;;;;;;4994625;28;20683;-71
2022/06/22 13:48:17;;;;;;;3.78;1.15;;;;;;;;;;5009685;28;20213;-70
2022/06/22 13:50:54;;;;;;;3.38;1.17;;;;;;;;;;5009736;28;20213;-70
2022/06/22 13:53:28;;;;;;;3.92;1.30;;;;;;;;;;4994368;28;20215;-72
2022/06/22 13:55:59;;;;;;;2.63;1.05;;;;;;;;;;5008641;28;20228;-72
2022/06/22 13:58:24;;;;;;;4.25;1.00;;;;;;;;;;4994396;28;20299;-72
2022/06/22 14:00:49;;;;;;;5.00;1.10;;;;;;;;;;4994161;28;20321;-72
2022/06/22 14:03:19;;;;;;;2.45;0.90;;;;;;;;;;4993090;28;20217;-71
2022/06/22 14:05:46;;;;;;;5.40;1.20;;;;;;;;;;4994211;28;20224;-73
2022/06/22 14:08:21;;;;;;;3.28;1.13;;;;;;;;;;4994086;28;20217;-70
2022/06/22 14:10:48;;;;;;;5.40;1.40;;;;;;;;;;4993430;28;20213;-73
2022/06/22 14:13:19;;;;;;;3.55;1.10;;;;;;;;;;5008705;28;20221;-72
2022/06/22 14:15:46;;;;;;;3.80;1.33;;;;;;;;;;4993762;28;20274;-72
2022/06/22 14:18:15;;;;;;;2.65;1.02;;;;;;;;;;5007741;28;20236;-71
2022/06/22 14:20:43;;;;;;;4.88;1.42;;;;;;;;;;5008951;28;20232;-72
2022/06/22 14:23:10;;;;;;;2.78;0.90;;;;;;;;;;4993658;28;20232;-71
2022/06/22 14:25:35;;;;;;;2.35;1.05;;;;;;;;;;5008079;28;20209;-71
2022/06/22 14:28:04;;;;;;;3.70;1.10;;;;;;;;;;4993130;28;20224;-69
2022/06/22 14:30:42;;;;;;;2.35;0.90;;;;;;;;;;5011569;28;20209;-71
2022/06/22 14:33:13;;;;;;;3.13;1.10;;;;;;;;;;5012709;28;20295;-71
2022/06/22 14:35:49;;;;;;;2.38;1.05;;;;;;;;;;5011925;28;20196;-70
2022/06/22 14:38:18;;;;;;;1.75;1.10;;;;;;;;;;5010992;28;20266;-71
2022/06/22 14:40:59;;;;;;;3.58;1.15;;;;;;;;;;5011345;28;20212;-71
2022/06/22 14:43:25;;;;;;;5.78;1.17;;;;;;;;;;5009283;28;20247;-71
2022/06/22 14:45:51;;;;;;;3.53;1.00;;;;;;;;;;4992913;28;20228;-72
2022/06/22 14:48:20;;;;;;;4.18;1.08;;;;;;;;;;4992075;28;20208;-72
2022/06/22 14:50:52;;;;;;;2.25;1.10;;;;;;;;;;4992149;28;20220;-72
2022/06/22 14:53:37;;;;;;;2.83;1.00;;;;;;;;;;4990834;28;20946;-72
2022/06/22 14:56:04;;;;;;;2.05;0.80;;;;;;;;;;4992737;28;20233;-69
2022/06/22 14:58:37;;;;;;;2.05;0.85;;;;;;;;;;4993521;28;20213;-72
2022/06/22 15:01:05;;;;;;;3.25;0.93;;;;;;;;;;4990341;28;20748;-73
2022/06/22 15:03:30;;;;;;;1.90;0.75;;;;;;;;;;5006531;28;20240;-70
2022/06/22 15:06:12;;;;;;;3.38;0.90;;;;;;;;;;4984602;28;20225;-71
2022/06/22 15:08:41;;;;;;;3.85;1.02;;;;;;;;;;4997776;28;20686;-73
2022/06/22 15:14:00;;;;;;;4.70;1.00;;;;;;;;;;5004287;28;20306;-72
2022/06/22 15:16:26;;;;;;;4.32;0.98;;;;;;;;;;5005477;28;20242;-71
2022/06/22 15:18:59;;;;;;;4.18;1.10;;;;;;;;;;5021873;28;20779;-73
2022/06/22 15:21:37;;;;;;;3.47;1.30;;;;;;;;;;5001963;28;20221;-64